Time;durP1;ratioP1;P1;durP2;ratioP2;P2;SDS_P1;SDS_P2;PMS_P1;PMS_P2;Temp;Humidity;BMP_temperature;BMP_pressure;BME280_temperature;BME280_humidity;BME280_pressure;Samples;Min_cycle;Max_cycle;Signal;HPM_P1;HPM_P2
2022/04/12 00:01:56;;;;;;;5.27;4.20;;;;;;;5.91;65.33;95315.81;5056034;28;20433;-84
2022/04/12 00:04:23;;;;;;;5.03;4.53;;;;;;;5.93;64.98;95319.16;5055172;28;20434;-86
2022/04/12 00:06:50;;;;;;;6.77;4.60;;;;;;;5.90;66.04;95314.13;5055415;28;20438;-85
2022/04/12 00:09:17;;;;;;;6.47;4.50;;;;;;;5.92;66.52;95314.88;5055034;28;20438;-85
2022/04/12 00:11:45;;;;;;;5.80;4.10;;;;;;;5.90;66.17;95312.38;5055398;28;20440;-86
2022/04/12 00:14:12;;;;;;;4.47;4.07;;;;;;;5.82;66.07;95311.97;5055007;28;20517;-85
2022/04/12 00:16:39;;;;;;;11.60;6.30;;;;;;;5.76;65.96;95314.06;5055293;28;20474;-84
2022/04/12 00:19:06;;;;;;;19.47;8.50;;;;;;;5.73;66.59;95302.06;5020622;28;20529;-86
2022/04/12 00:21:35;;;;;;;7.93;4.80;;;;;;;5.74;66.88;95310.72;5055439;28;20786;-85
2022/04/12 00:24:04;;;;;;;5.20;4.00;;;;;;;5.68;66.07;95306.72;5055485;28;20450;-85
2022/04/12 00:26:32;;;;;;;4.27;3.87;;;;;;;5.68;66.36;95311.09;5055900;28;20433;-82
2022/04/12 00:29:00;;;;;;;5.07;4.00;;;;;;;5.56;66.83;95303.09;5035900;28;20448;-83
2022/04/12 00:31:30;;;;;;;4.37;4.00;;;;;;;5.57;66.74;95296.94;5054109;28;20916;-82
2022/04/12 00:33:57;;;;;;;5.37;4.00;;;;;;;5.51;67.71;95296.47;5055035;28;20441;-85
2022/04/12 00:36:24;;;;;;;4.97;4.47;;;;;;;5.55;67.78;95296.19;5054180;28;20971;-86
2022/04/12 00:38:51;;;;;;;4.37;3.90;;;;;;;5.56;67.31;95299.63;5036038;28;20484;-85
2022/04/12 00:41:18;;;;;;;7.17;4.33;;;;;;;5.53;67.94;95298.06;5054724;28;20479;-85
2022/04/12 00:43:45;;;;;;;6.87;4.90;;;;;;;5.50;67.39;95297.41;5055127;28;20465;-85
2022/04/12 00:46:13;;;;;;;6.37;4.53;;;;;;;5.42;67.81;95283.97;5054723;28;20441;-85
2022/04/12 00:48:40;;;;;;;9.60;4.60;;;;;;;5.43;67.46;95289.09;5054826;28;20452;-84
2022/04/12 00:51:07;;;;;;;6.77;4.20;;;;;;;5.45;67.98;95289.84;5003556;28;20441;-84
2022/04/12 00:53:34;;;;;;;4.93;4.40;;;;;;;5.43;68.43;95288.25;5054116;28;20837;-85
2022/04/12 00:56:04;;;;;;;7.10;4.70;;;;;;;5.38;68.73;95285.09;5054243;28;20499;-86
2022/04/12 01:01:54;;;;;;;7.23;4.90;;;;;;;5.44;67.92;95297.72;5054104;28;20427;-86
2022/04/12 01:04:21;;;;;;;6.50;4.87;;;;;;;5.35;68.49;95296.50;5019474;28;20448;-86
2022/04/12 01:06:48;;;;;;;6.00;4.07;;;;;;;5.41;68.59;95296.16;5054462;28;20418;-85
2022/04/12 01:09:15;;;;;;;4.77;4.37;;;;;;;5.45;68.88;95295.03;5061873;28;20433;-85
2022/04/12 01:11:48;;;;;;;10.53;4.50;;;;;;;5.47;68.30;95292.34;5074056;28;20456;-86
2022/04/12 01:14:15;;;;;;;4.50;4.10;;;;;;;5.48;66.98;95284.44;5074239;28;20464;-86
2022/04/12 01:16:42;;;;;;;6.13;4.50;;;;;;;5.36;68.00;95279.13;5074085;28;20511;-85
2022/04/12 01:19:11;;;;;;;9.47;5.50;;;;;;;5.29;68.05;95279.50;5074005;28;20445;-86
2022/04/12 01:21:44;;;;;;;8.47;4.63;;;;;;;5.31;68.25;95286.38;5074338;28;20790;-83
2022/04/12 01:24:13;;;;;;;5.93;4.43;;;;;;;5.16;69.86;95275.91;5073990;28;20457;-86
2022/04/12 01:26:41;;;;;;;5.23;4.73;;;;;;;5.18;69.68;95283.63;5074224;28;20492;-85
2022/04/12 01:29:08;;;;;;;6.27;4.67;;;;;;;5.13;70.39;95288.25;5074064;28;20448;-85
2022/04/12 01:31:35;;;;;;;12.23;4.87;;;;;;;5.04;69.88;95296.59;5074041;28;20417;-86
2022/04/12 01:40:47;;;;;;;5.37;3.80;;;;;;;5.03;69.98;95298.34;5072796;28;20428;-85
2022/04/12 01:43:14;;;;;;;6.37;3.73;;;;;;;5.02;69.42;95296.69;5073667;28;20465;-86
2022/04/12 01:45:41;;;;;;;8.10;4.43;;;;;;;5.05;69.98;95295.66;5073012;28;20453;-85
2022/04/12 01:48:08;;;;;;;5.37;4.00;;;;;;;4.96;69.00;95290.06;5072954;28;20461;-85
2022/04/12 01:50:35;;;;;;;4.43;3.50;;;;;;;4.97;69.63;95307.34;5073564;28;20537;-86
2022/04/12 01:53:02;;;;;;;7.70;4.90;;;;;;;4.92;69.12;95296.38;5038662;28;20468;-85
2022/04/12 01:55:29;;;;;;;5.93;4.57;;;;;;;4.89;69.54;95293.09;5073784;28;20413;-86
2022/04/12 01:58:01;;;;;;;5.50;4.80;;;;;;;4.79;70.48;95300.56;5054893;28;20491;-86
2022/04/12 02:00:28;;;;;;;5.50;4.33;;;;;;;4.76;69.97;95303.34;5073992;28;20440;-84
2022/04/12 02:02:55;;;;;;;6.03;4.60;;;;;;;4.69;69.73;95291.63;5073777;28;20425;-87
2022/04/12 02:05:23;;;;;;;7.03;4.57;;;;;;;4.65;70.69;95303.09;5074256;28;20937;-85
2022/04/12 02:07:50;;;;;;;7.70;5.27;;;;;;;4.67;71.34;95296.06;5077386;28;20460;-85
2022/04/12 02:10:21;;;;;;;4.40;3.60;;;;;;;4.69;71.04;95288.19;5077423;28;20439;-86
2022/04/12 02:12:48;;;;;;;4.60;4.20;;;;;;;4.67;70.96;95290.84;5077028;28;20445;-86
2022/04/12 02:15:16;;;;;;;11.10;4.80;;;;;;;4.64;71.56;95286.69;5077204;28;20445;-86
2022/04/12 02:17:45;;;;;;;7.90;4.83;;;;;;;4.58;71.25;95280.94;5076947;28;20488;-86
2022/04/12 02:20:12;;;;;;;5.30;4.80;;;;;;;4.59;70.87;95272.22;5077326;28;20447;-86
2022/04/12 02:22:39;;;;;;;3.93;3.63;;;;;;;4.58;71.84;95281.78;5077384;28;20452;-86
2022/04/12 02:25:07;;;;;;;5.00;4.17;;;;;;;4.58;71.44;95278.34;5025821;28;20472;-86
2022/04/12 02:27:34;;;;;;;4.00;3.43;;;;;;;4.61;71.56;95279.03;5077908;28;20453;-86
2022/04/12 02:30:01;;;;;;;5.97;3.30;;;;;;;4.52;70.72;95266.53;5076893;28;21004;-86
2022/04/12 02:32:29;;;;;;;6.40;4.00;;;;;;;4.54;70.56;95282.03;5076744;28;20449;-86
2022/04/12 02:35:00;;;;;;;5.50;4.10;;;;;;;4.54;70.49;95282.03;5077106;28;20440;-85
2022/04/12 02:37:27;;;;;;;4.23;3.73;;;;;;;4.53;70.59;95289.00;5025487;28;20579;-86
2022/04/12 02:39:54;;;;;;;5.20;3.43;;;;;;;4.54;70.57;95288.09;5058492;28;20473;-85
2022/04/12 02:42:21;;;;;;;5.20;3.90;;;;;;;4.56;70.61;95298.38;5076643;28;20439;-86
2022/04/12 02:44:48;;;;;;;4.00;3.40;;;;;;;4.52;70.82;95292.53;5076631;28;20444;-87
2022/04/12 02:47:15;;;;;;;5.50;3.60;;;;;;;4.42;71.33;95287.94;5076642;28;20432;-86
2022/04/12 02:49:45;;;;;;;8.27;3.83;;;;;;;4.52;71.05;95291.69;5076968;28;20433;-86
2022/04/12 02:52:12;;;;;;;5.30;3.67;;;;;;;4.56;70.62;95294.03;5077202;28;20429;-86
2022/04/12 02:54:39;;;;;;;7.20;4.70;;;;;;;4.57;70.75;95289.66;5076652;28;20435;-85
2022/04/12 02:57:06;;;;;;;3.83;3.43;;;;;;;4.53;71.26;95283.81;5076288;28;20481;-87
2022/04/12 02:59:33;;;;;;;9.40;4.30;;;;;;;4.51;70.37;95284.81;5076967;28;20444;-85
2022/04/12 03:02:00;;;;;;;8.40;4.20;;;;;;;4.44;70.97;95273.94;5041405;28;20447;-86
2022/04/12 03:04:26;;;;;;;5.67;4.50;;;;;;;4.46;70.93;95284.22;5076483;28;20464;-86
2022/04/12 03:06:55;;;;;;;4.80;3.97;;;;;;;4.49;71.30;95281.47;5076347;28;20455;-85
2022/04/12 03:09:22;;;;;;;7.30;3.90;;;;;;;4.46;70.75;95281.63;5041345;28;20453;-87
2022/04/12 03:11:49;;;;;;;6.10;4.57;;;;;;;4.43;70.65;95292.19;5076442;28;20527;-86
2022/04/12 03:14:16;;;;;;;24.40;12.07;;;;;;;4.40;70.95;95292.38;5076205;28;20453;-85
2022/04/12 03:16:43;;;;;;;12.90;7.20;;;;;;;4.43;70.58;95290.44;5075977;28;20560;-86
2022/04/12 03:19:10;;;;;;;18.83;7.90;;;;;;;4.43;70.54;95285.25;5076566;28;21023;-85
2022/04/12 03:21:37;;;;;;;8.50;5.23;;;;;;;4.42;70.48;95290.53;5075829;28;20429;-85
2022/04/12 03:24:06;;;;;;;4.93;4.10;;;;;;;4.40;70.51;95285.41;5075948;28;20456;-86
2022/04/12 03:26:36;;;;;;;6.70;4.00;;;;;;;4.31;69.57;95291.91;5076405;28;20437;-86
2022/04/12 03:29:05;;;;;;;3.70;3.30;;;;;;;4.24;70.04;95282.78;5076145;28;20440;-87
2022/04/12 03:31:31;;;;;;;5.30;4.00;;;;;;;4.23;71.36;95301.06;5076149;28;20453;-87
2022/04/12 03:33:58;;;;;;;17.73;4.30;;;;;;;4.22;71.32;95297.63;5075943;28;20451;-86
2022/04/12 03:36:25;;;;;;;9.43;4.57;;;;;;;4.22;71.00;95294.19;5024628;28;20465;-86
2022/04/12 03:38:53;;;;;;;5.63;4.33;;;;;;;4.23;70.42;95288.91;5076111;28;21000;-84
2022/04/12 03:41:23;;;;;;;7.67;4.20;;;;;;;4.29;70.95;95308.50;5075643;28;20520;-86
2022/04/12 03:43:50;;;;;;;6.17;4.30;;;;;;;4.30;70.90;95300.63;5077437;28;20469;-86
2022/04/12 03:46:17;;;;;;;5.40;4.90;;;;;;;4.27;70.66;95297.38;5080129;28;20505;-85
2022/04/12 03:48:45;;;;;;;5.17;3.63;;;;;;;4.29;70.61;95298.13;5076325;28;20436;-86
2022/04/12 03:51:13;;;;;;;6.17;4.40;;;;;;;4.31;70.44;95304.91;5075747;28;20437;-84
2022/04/12 03:53:40;;;;;;;3.87;3.57;;;;;;;4.37;70.84;95302.94;5075847;28;20520;-85
2022/04/12 04:13:01;;;;;;;18.43;8.23;;;;;;;4.97;72.56;95320.34;5074840;28;20438;-85
2022/04/12 04:15:28;;;;;;;19.17;8.27;;;;;;;5.70;69.52;95317.03;5075408;28;20539;-85
2022/04/12 04:17:55;;;;;;;15.20;9.03;;;;;;;6.48;67.49;95318.41;5075026;28;20502;-85
2022/04/12 04:20:22;;;;;;;12.43;8.20;;;;;;;7.55;63.77;95316.78;5074727;28;20484;-83
2022/04/12 04:22:49;;;;;;;10.40;8.53;;;;;;;8.60;60.59;95309.59;5039996;28;20445;-83
2022/04/12 04:25:16;;;;;;;26.90;9.40;;;;;;;9.35;55.92;95310.28;5074084;28;20456;-82
2022/04/12 04:27:44;;;;;;;21.07;8.23;;;;;;;10.20;53.01;95316.13;5023041;28;20471;-84
2022/04/12 04:30:13;;;;;;;10.13;7.00;;;;;;;10.88;50.88;95315.19;5074866;28;20954;-83
2022/04/12 04:32:40;;;;;;;14.50;8.30;;;;;;;11.42;49.29;95312.56;5074465;28;20425;-84
2022/04/12 04:35:08;;;;;;;12.97;7.70;;;;;;;11.73;47.29;95303.00;5074095;28;20467;-83
2022/04/12 04:37:42;;;;;;;16.43;10.40;;;;;;;12.19;46.37;95322.03;5074015;28;20506;-84
2022/04/12 04:40:11;;;;;;;13.57;9.70;;;;;;;12.65;45.14;95322.41;5074103;28;20429;-84
2022/04/12 04:42:39;;;;;;;24.73;10.33;;;;;;;12.98;44.66;95323.91;5039391;28;20491;-84
2022/04/12 04:45:07;;;;;;;20.53;10.90;;;;;;;13.03;43.92;95327.00;5072357;28;20933;-83
2022/04/12 04:47:36;;;;;;;20.30;13.37;;;;;;;13.20;42.85;95319.41;5074850;28;20440;-83
2022/04/12 04:50:03;;;;;;;18.60;14.10;;;;;;;13.37;43.02;95313.50;5074907;28;20421;-83
2022/04/12 04:52:30;;;;;;;21.80;16.20;;;;;;;13.42;42.37;95321.00;5072202;28;20452;-84
2022/04/12 04:54:56;;;;;;;24.90;19.47;;;;;;;12.94;42.28;95330.41;5073949;28;20874;-84
2022/04/12 05:07:30;;;;;;;20.73;16.80;;;;;;;12.22;45.15;95329.66;5060882;28;20876;-79
2022/04/12 05:09:57;;;;;;;20.43;17.10;;;;;;;12.12;44.70;95323.47;5053735;28;21087;-81
2022/04/12 05:12:24;;;;;;;24.00;17.83;;;;;;;11.85;44.96;95327.44;5053919;28;20536;-82
2022/04/12 05:14:51;;;;;;;24.57;18.03;;;;;;;11.83;46.24;95336.44;5054026;28;20430;-81
2022/04/12 05:17:25;;;;;;;23.10;17.60;;;;;;;11.97;45.81;95331.72;5053908;28;20473;-83
2022/04/12 05:19:52;;;;;;;20.50;16.70;;;;;;;12.06;45.40;95327.47;5019493;28;20496;-80
2022/04/12 05:22:19;;;;;;;20.80;14.67;;;;;;;11.95;45.19;95325.75;5054039;28;20441;-80
2022/04/12 05:24:47;;;;;;;24.50;17.40;;;;;;;12.09;45.72;95335.09;5053157;28;20454;-82
2022/04/12 05:27:14;;;;;;;22.50;16.03;;;;;;;11.82;45.85;95326.88;5073877;28;20440;-82
2022/04/12 05:29:41;;;;;;;19.17;14.90;;;;;;;12.04;45.57;95329.41;5072901;28;20441;-82
2022/04/12 05:32:09;;;;;;;17.47;14.13;;;;;;;11.90;46.62;95330.56;5073753;28;20453;-85
2022/04/12 05:34:36;;;;;;;16.60;14.30;;;;;;;11.68;45.94;95336.72;5073794;28;20437;-84
2022/04/12 05:37:04;;;;;;;16.00;14.30;;;;;;;11.59;51.18;95328.75;5073859;28;20488;-84
2022/04/12 05:39:31;;;;;;;17.87;12.40;;;;;;;11.70;48.96;95337.41;5060548;28;20437;-83
2022/04/12 05:42:00;;;;;;;18.47;13.80;;;;;;;11.98;48.40;95336.00;5053274;28;20437;-82
2022/04/12 05:44:28;;;;;;;20.50;13.90;;;;;;;12.03;46.02;95336.44;5008644;28;20472;-83
2022/04/12 05:46:56;;;;;;;28.07;14.10;;;;;;;12.02;46.07;95324.25;5073286;28;20859;-83
2022/04/12 05:49:23;;;;;;;20.03;12.47;;;;;;;11.54;47.85;95337.00;5073678;28;20429;-83
2022/04/12 05:51:50;;;;;;;20.60;13.83;;;;;;;11.34;47.09;95332.53;5073745;28;20425;-83
2022/04/12 05:54:17;;;;;;;17.13;12.17;;;;;;;11.69;46.65;95327.88;5054910;28;20437;-83
2022/04/12 05:56:44;;;;;;;18.67;11.57;;;;;;;11.92;46.00;95330.44;5073145;28;20437;-83
2022/04/12 05:59:12;;;;;;;19.17;14.20;;;;;;;12.12;46.87;95332.22;5073151;28;20528;-83
2022/04/12 06:01:39;;;;;;;17.70;10.60;;;;;;;12.44;46.32;95333.94;5073367;28;20437;-83
2022/04/12 06:04:07;;;;;;;16.80;10.87;;;;;;;12.53;46.86;95344.53;5022039;28;20436;-83
2022/04/12 06:06:34;;;;;;;11.90;10.10;;;;;;;12.49;45.89;95350.19;5073342;28;20433;-83
2022/04/12 06:09:01;;;;;;;16.23;11.07;;;;;;;12.17;46.69;95345.00;5073022;28;20449;-82
2022/04/12 06:11:28;;;;;;;18.13;10.80;;;;;;;12.38;46.47;95351.91;5073295;28;20429;-83
2022/04/12 06:13:55;;;;;;;19.70;12.80;;;;;;;12.45;47.33;95346.16;5072796;28;20802;-83
2022/04/12 06:16:23;;;;;;;17.30;13.77;;;;;;;12.63;46.39;95347.19;5073289;28;20433;-83
2022/04/12 06:18:50;;;;;;;15.23;12.93;;;;;;;12.66;46.11;95337.22;5072782;28;20477;-82
2022/04/12 06:21:17;;;;;;;13.80;11.20;;;;;;;12.38;46.99;95348.44;5072988;28;20433;-83
2022/04/12 06:23:44;;;;;;;11.80;10.60;;;;;;;12.33;47.33;95358.53;5072937;28;20838;-83
2022/04/12 06:26:11;;;;;;;14.33;10.80;;;;;;;12.43;46.92;95367.31;5054889;28;20449;-83
2022/04/12 06:28:38;;;;;;;17.90;12.30;;;;;;;12.61;47.86;95365.75;5072790;28;20443;-83
2022/04/12 06:31:05;;;;;;;17.83;12.10;;;;;;;12.08;47.34;95351.84;5038071;28;20456;-83
2022/04/12 06:33:34;;;;;;;15.03;12.00;;;;;;;11.88;48.80;95352.69;5073264;28;20433;-83
2022/04/12 06:36:01;;;;;;;18.30;11.87;;;;;;;11.91;48.55;95360.31;5073050;28;20531;-83
2022/04/12 06:38:28;;;;;;;16.60;11.97;;;;;;;12.00;47.34;95363.00;5072821;28;20485;-82
2022/04/12 06:40:55;;;;;;;20.57;12.67;;;;;;;12.15;48.22;95367.97;5072633;28;20457;-83
2022/04/12 06:43:22;;;;;;;15.53;13.50;;;;;;;11.88;47.90;95368.47;5072849;28;20476;-83
2022/04/12 06:45:49;;;;;;;22.00;12.40;;;;;;;11.64;48.61;95366.84;5072916;28;20436;-83
2022/04/12 06:48:15;;;;;;;19.00;12.93;;;;;;;12.03;48.53;95370.66;5073142;28;20445;-82
2022/04/12 06:50:44;;;;;;;18.87;13.13;;;;;;;12.36;46.92;95366.16;5021532;28;20536;-83
2022/04/12 06:53:23;;;;;;;19.10;14.37;;;;;;;12.64;47.66;95372.56;5075979;28;20797;-82
2022/04/12 06:55:50;;;;;;;26.33;13.80;;;;;;;12.62;45.85;95369.22;5041268;28;20440;-82
2022/04/12 06:58:17;;;;;;;20.07;13.57;;;;;;;12.34;46.96;95370.72;5076317;28;20484;-82
2022/04/12 07:00:44;;;;;;;24.37;14.83;;;;;;;12.01;48.12;95363.84;5075619;28;20440;-83
2022/04/12 07:03:11;;;;;;;23.20;11.50;;;;;;;12.40;45.91;95365.75;5057480;28;20452;-83
2022/04/12 07:05:38;;;;;;;20.20;11.93;;;;;;;12.48;45.10;95366.94;5024542;28;20439;-82
2022/04/12 07:08:07;;;;;;;17.30;12.47;;;;;;;12.87;46.42;95366.16;5075971;28;20433;-83
2022/04/12 07:10:34;;;;;;;15.93;12.17;;;;;;;12.26;45.11;95370.53;5075422;28;20452;-82
2022/04/12 07:13:01;;;;;;;16.93;11.07;;;;;;;12.66;45.53;95360.09;5075408;28;20440;-82
2022/04/12 07:15:28;;;;;;;13.13;10.13;;;;;;;12.62;45.97;95354.25;5075812;28;20447;-82
2022/04/12 07:17:55;;;;;;;15.83;10.50;;;;;;;12.59;46.88;95367.69;5075778;28;20850;-82
2022/04/12 07:20:21;;;;;;;12.10;9.97;;;;;;;12.59;45.02;95357.16;5075458;28;20970;-82
2022/04/12 07:22:48;;;;;;;15.87;10.30;;;;;;;12.57;45.39;95361.72;5075671;28;20451;-81
2022/04/12 07:25:18;;;;;;;9.83;8.80;;;;;;;12.93;46.03;95356.88;5075432;28;20484;-82
2022/04/12 07:27:45;;;;;;;13.10;9.33;;;;;;;12.91;45.19;95357.03;5075472;28;20443;-83
2022/04/12 07:30:12;;;;;;;17.80;9.40;;;;;;;13.05;44.49;95360.28;5056424;28;20515;-82
2022/04/12 07:32:40;;;;;;;13.00;8.77;;;;;;;13.16;44.44;95352.25;5075036;28;21259;-82
2022/04/12 07:35:07;;;;;;;16.80;9.00;;;;;;;12.96;43.28;95356.63;5075131;28;20440;-80
2022/04/12 07:37:37;;;;;;;12.43;8.53;;;;;;;12.78;43.78;95356.41;5074850;28;20445;-82
2022/04/12 07:40:04;;;;;;;19.93;9.10;;;;;;;12.84;44.65;95361.16;5075136;28;20545;-82
2022/04/12 07:42:33;;;;;;;12.70;9.60;;;;;;;12.81;43.65;95358.78;5075164;28;20974;-81
2022/04/12 07:44:59;;;;;;;11.90;8.77;;;;;;;12.82;43.03;95359.63;5076155;28;20452;-83
2022/04/12 07:47:26;;;;;;;13.10;9.03;;;;;;;13.06;43.00;95354.03;5024119;28;20433;-83
2022/04/12 07:49:53;;;;;;;16.17;9.17;;;;;;;13.41;42.12;95351.78;5075560;28;20435;-81
2022/04/12 07:52:20;;;;;;;14.60;8.80;;;;;;;13.77;41.47;95339.75;5040037;28;20429;-83
2022/04/12 07:54:47;;;;;;;13.00;9.23;;;;;;;13.40;41.24;95350.13;5075481;28;20437;-83
2022/04/12 07:57:14;;;;;;;20.13;9.30;;;;;;;13.48;41.34;95345.00;5075412;28;20433;-82
2022/04/12 07:59:42;;;;;;;10.50;9.40;;;;;;;13.18;41.89;95339.81;5075190;28;20468;-82
2022/04/12 08:05:30;;;;;;;12.03;8.10;;;;;;;13.10;43.08;95337.81;5075117;28;20414;-82
2022/04/12 08:07:57;;;;;;;9.53;8.00;;;;;;;12.68;43.30;95330.03;5074777;28;20428;-81
2022/04/12 08:10:24;;;;;;;9.70;7.30;;;;;;;13.06;43.28;95335.59;5074960;28;20452;-82
2022/04/12 08:12:52;;;;;;;10.80;8.27;;;;;;;13.24;41.33;95336.63;5074777;28;20849;-82
2022/04/12 08:15:20;;;;;;;18.07;8.53;;;;;;;13.44;40.45;95330.44;5056753;28;20422;-82
2022/04/12 08:17:47;;;;;;;9.43;8.40;;;;;;;13.57;41.66;95317.81;5075071;28;20441;-82
2022/04/12 08:20:14;;;;;;;16.73;9.00;;;;;;;13.90;42.42;95321.03;5074987;28;20429;-82
2022/04/12 08:22:42;;;;;;;8.80;6.53;;;;;;;14.05;38.55;95318.78;5039536;28;20791;-82
2022/04/12 08:25:10;;;;;;;7.10;4.97;;;;;;;13.97;34.22;95311.56;5074757;28;20449;-82
2022/04/12 08:27:37;;;;;;;11.63;5.60;;;;;;;14.11;34.73;95310.28;5074714;28;20437;-83
2022/04/12 08:30:07;;;;;;;4.23;3.40;;;;;;;14.01;34.66;95312.94;5056121;28;20468;-82
2022/04/12 08:32:35;;;;;;;3.77;3.47;;;;;;;14.01;34.15;95302.41;5075033;28;20440;-82
2022/04/12 08:35:02;;;;;;;6.00;3.80;;;;;;;14.31;34.01;95297.91;5074254;28;21011;-82
2022/04/12 08:37:29;;;;;;;5.53;3.80;;;;;;;14.67;33.34;95278.63;5074568;28;20452;-82
2022/04/12 08:39:56;;;;;;;17.20;4.30;;;;;;;14.73;33.22;95299.16;5074374;28;20484;-81
2022/04/12 08:42:23;;;;;;;4.00;3.60;;;;;;;14.47;32.96;95287.63;5073927;28;20480;-82
2022/04/12 08:44:51;;;;;;;4.90;3.77;;;;;;;14.52;32.87;95294.13;5073826;28;20441;-83
2022/04/12 08:47:19;;;;;;;7.70;4.47;;;;;;;14.65;32.53;95285.88;5074112;28;20448;-83
2022/04/12 08:49:47;;;;;;;4.30;3.90;;;;;;;14.72;32.29;95286.94;5022674;28;20807;-82
2022/04/12 08:52:15;;;;;;;10.17;7.20;;;;;;;14.89;33.07;95282.69;5060114;28;20452;-82
2022/04/12 08:54:43;;;;;;;4.60;4.20;;;;;;;14.90;32.78;95276.44;5076427;28;20441;-82
2022/04/12 08:57:11;;;;;;;4.90;3.77;;;;;;;15.09;32.27;95267.59;5075395;28;20447;-83
2022/04/12 08:59:39;;;;;;;7.23;4.43;;;;;;;14.88;32.11;95276.59;5073618;28;20481;-82
2022/04/12 09:02:09;;;;;;;5.43;3.83;;;;;;;14.62;31.92;95272.13;5073765;28;20449;-83
2022/04/12 09:04:36;;;;;;;6.67;3.73;;;;;;;14.27;33.02;95263.88;5073451;28;20628;-84
2022/04/12 09:07:08;;;;;;;5.97;3.97;;;;;;;14.35;33.57;95268.44;5073240;28;20441;-82
2022/04/12 09:09:35;;;;;;;4.33;4.03;;;;;;;14.45;32.99;95268.41;5055189;28;20953;-82
2022/04/12 09:12:06;;;;;;;6.57;4.60;;;;;;;14.45;34.02;95260.50;5074001;28;20460;-82
2022/04/12 09:14:40;;;;;;;9.30;5.43;;;;;;;14.64;33.35;95256.97;5074124;28;20506;-81
2022/04/12 09:17:09;;;;;;;7.33;4.13;;;;;;;14.86;33.23;95265.34;5073823;28;20802;-80
2022/04/12 09:19:40;;;;;;;7.00;4.20;;;;;;;14.98;33.53;95249.28;5073926;28;21047;-82
2022/04/12 09:22:13;;;;;;;7.23;4.90;;;;;;;15.03;33.56;95247.00;5077188;28;20457;-82
2022/04/12 09:24:45;;;;;;;8.83;4.20;;;;;;;15.21;32.99;95255.81;5077237;28;20437;-82
2022/04/12 09:27:13;;;;;;;15.63;4.20;;;;;;;15.19;32.28;95242.75;5074523;28;20837;-82
2022/04/12 09:29:45;;;;;;;6.00;3.90;;;;;;;15.09;32.36;95244.63;5073395;28;20436;-82
2022/04/12 09:32:14;;;;;;;8.47;4.63;;;;;;;14.93;32.10;95246.25;5073560;28;20490;-81
2022/04/12 09:34:42;;;;;;;6.80;4.70;;;;;;;14.75;33.02;95243.56;5074112;28;20448;-82
2022/04/12 09:37:25;;;;;;;11.40;4.80;;;;;;;14.57;33.71;95236.41;5073577;28;20449;-82
2022/04/12 09:40:04;;;;;;;4.13;3.37;;;;;;;14.49;32.34;95227.56;5074144;28;20472;-81
2022/04/12 09:42:49;;;;;;;11.70;4.23;;;;;;;14.43;32.84;95221.03;5073529;28;20476;-83
2022/04/12 09:45:17;;;;;;;4.20;3.80;;;;;;;14.30;33.25;95227.59;5074435;28;20821;-82
2022/04/12 09:47:45;;;;;;;5.20;3.90;;;;;;;14.01;33.71;95223.25;5077711;28;20445;-81
2022/04/12 09:50:13;;;;;;;10.77;4.20;;;;;;;13.94;34.34;95217.72;5024730;28;20441;-82
2022/04/12 09:52:53;;;;;;;11.90;4.90;;;;;;;14.31;35.09;95214.25;5074645;28;20445;-82
2022/04/12 09:55:34;;;;;;;5.93;4.50;;;;;;;14.46;33.01;95209.38;5073501;28;20433;-83
2022/04/12 09:58:02;;;;;;;4.63;3.87;;;;;;;14.29;32.49;95204.81;5073062;28;20445;-83
2022/04/12 10:00:30;;;;;;;4.30;4.00;;;;;;;14.27;32.80;95203.16;5073097;28;20438;-82
2022/04/12 10:02:57;;;;;;;5.73;3.50;;;;;;;14.22;33.05;95192.22;5073301;28;20436;-83
2022/04/12 10:05:25;;;;;;;7.87;3.57;;;;;;;14.19;33.85;95191.66;5073236;28;20490;-83
2022/04/12 10:07:54;;;;;;;6.70;4.70;;;;;;;14.23;34.56;95185.13;5073062;28;20912;-83
2022/04/12 10:10:23;;;;;;;5.47;4.20;;;;;;;14.25;34.60;95186.63;5073327;28;20441;-83
2022/04/12 10:12:50;;;;;;;3.53;3.23;;;;;;;14.20;33.85;95186.25;5069711;28;20422;-84
2022/04/12 10:15:18;;;;;;;3.10;2.83;;;;;;;14.25;33.58;95181.34;5057635;28;20815;-83
2022/04/12 10:17:46;;;;;;;3.33;3.03;;;;;;;14.06;33.33;95176.13;5053410;28;20899;-82
2022/04/12 10:20:15;;;;;;;3.30;2.83;;;;;;;13.96;34.69;95172.72;5052940;28;20566;-82
2022/04/12 10:22:42;;;;;;;3.67;2.47;;;;;;;13.83;34.54;95178.28;5019390;28;20457;-83
2022/04/12 10:25:13;;;;;;;3.53;2.80;;;;;;;14.03;34.14;95170.31;5053369;28;20442;-83
2022/04/12 10:27:40;;;;;;;6.57;3.40;;;;;;;14.13;35.09;95166.66;5054499;28;20433;-83
2022/04/12 10:30:26;;;;;;;4.47;3.47;;;;;;;14.00;35.00;95163.53;5057022;28;20445;-84
2022/04/12 10:33:00;;;;;;;3.30;3.00;;;;;;;14.05;35.79;95158.66;5076898;28;20433;-82
2022/04/12 10:35:27;;;;;;;2.90;2.70;;;;;;;14.07;35.23;95159.31;5076690;28;20497;-83
2022/04/12 10:37:56;;;;;;;3.67;3.37;;;;;;;14.06;34.97;95156.84;5076487;28;20460;-83
2022/04/12 10:40:26;;;;;;;3.70;2.77;;;;;;;14.15;35.27;95153.31;5076463;28;20456;-83
2022/04/12 10:42:56;;;;;;;4.63;2.90;;;;;;;14.07;35.98;95143.50;5024711;28;20483;-83
2022/04/12 10:45:32;;;;;;;6.97;3.27;;;;;;;14.00;35.84;95142.41;5076430;28;20490;-83
2022/04/12 10:48:00;;;;;;;5.20;3.50;;;;;;;14.06;35.89;95144.47;5076215;28;20443;-83
2022/04/12 10:50:28;;;;;;;3.33;3.03;;;;;;;14.29;36.40;95146.75;5076342;28;20540;-83
2022/04/12 10:52:55;;;;;;;4.63;3.33;;;;;;;14.37;35.82;95138.91;5076338;28;20425;-83
2022/04/12 10:55:25;;;;;;;7.50;3.43;;;;;;;14.29;36.12;95142.31;5076485;28;20433;-82
2022/04/12 11:05:22;;;;;;;5.80;3.17;;;;;;;14.14;35.65;95130.53;5076037;28;20886;-82
2022/04/12 11:07:50;;;;;;;4.87;2.67;;;;;;;14.34;37.05;95129.47;5076117;28;20449;-82
2022/04/12 11:10:22;;;;;;;5.43;3.10;;;;;;;14.50;35.36;95119.16;5076197;28;20437;-82
2022/04/12 11:12:50;;;;;;;5.80;3.17;;;;;;;14.58;35.08;95113.13;5077020;28;20452;-82
2022/04/12 11:15:22;;;;;;;8.33;2.67;;;;;;;14.61;35.51;95104.06;5076288;28;20447;-82
2022/04/12 11:17:49;;;;;;;3.33;2.67;;;;;;;14.57;34.25;95120.22;5076428;28;20787;-83
2022/04/12 11:20:23;;;;;;;6.03;2.97;;;;;;;14.57;36.11;95112.28;5075745;28;20967;-82
2022/04/12 11:22:57;;;;;;;5.50;3.77;;;;;;;14.70;35.42;95108.44;5076596;28;20943;-82
2022/04/12 11:32:09;;;;;;;3.27;2.77;;;;;;;15.05;34.67;95097.06;5075637;28;20431;-83
2022/04/12 11:34:37;;;;;;;6.23;3.67;;;;;;;14.88;34.93;95085.50;5075897;28;20519;-83
2022/04/12 11:37:07;;;;;;;3.70;3.10;;;;;;;14.97;35.51;95095.16;5075312;28;20430;-83
2022/04/12 11:39:38;;;;;;;2.90;2.57;;;;;;;15.08;35.50;95087.03;5075206;28;20522;-82
2022/04/12 11:42:07;;;;;;;5.07;2.97;;;;;;;15.04;34.37;95090.13;5075022;28;20456;-82
2022/04/12 11:44:34;;;;;;;6.20;2.30;;;;;;;15.01;34.96;95080.66;5075935;28;20447;-83
2022/04/12 11:47:03;;;;;;;4.10;2.40;;;;;;;15.03;34.35;95077.88;5075565;28;20445;-82
2022/04/12 11:49:32;;;;;;;3.00;2.70;;;;;;;15.03;34.84;95080.50;5075491;28;20441;-83
2022/04/12 11:52:01;;;;;;;5.67;2.97;;;;;;;15.08;34.29;95075.63;5075143;28;20931;-82
2022/04/12 11:54:30;;;;;;;5.87;3.37;;;;;;;15.08;33.81;95052.66;5075352;28;20527;-82
2022/04/12 11:57:03;;;;;;;2.50;2.30;;;;;;;15.21;33.12;95059.34;5075606;28;20524;-83
2022/04/12 11:59:31;;;;;;;4.53;2.97;;;;;;;15.26;34.73;95059.72;5074799;28;21335;-83
2022/04/12 12:02:02;;;;;;;3.77;3.43;;;;;;;15.16;32.62;95052.72;5074778;28;20935;-82
2022/04/12 12:04:31;;;;;;;5.10;2.67;;;;;;;15.20;34.17;95063.81;5074826;28;20853;-82
2022/04/12 12:07:00;;;;;;;3.23;2.20;;;;;;;15.23;33.44;95054.75;5074844;28;20456;-83
2022/04/12 12:09:27;;;;;;;2.80;2.60;;;;;;;15.15;32.84;95040.47;5074869;28;21216;-82
2022/04/12 12:11:58;;;;;;;3.57;2.60;;;;;;;15.08;32.03;95041.25;5074800;28;20449;-83
2022/04/12 12:14:27;;;;;;;6.43;2.27;;;;;;;15.01;32.83;95035.75;5075337;28;20463;-84
2022/04/12 12:17:02;;;;;;;2.60;2.40;;;;;;;15.06;32.62;95035.31;5074582;28;20440;-82
2022/04/12 12:19:29;;;;;;;3.83;2.00;;;;;;;15.10;32.31;95032.19;5074656;28;20578;-82
2022/04/12 12:21:56;;;;;;;4.93;2.90;;;;;;;15.09;30.75;95033.19;5074958;28;20808;-83
2022/04/12 12:24:23;;;;;;;4.20;2.70;;;;;;;15.12;31.78;95032.88;5074528;28;20456;-82
2022/04/12 12:26:54;;;;;;;4.80;2.87;;;;;;;15.24;30.75;95019.38;5039491;28;20429;-82
2022/04/12 12:29:22;;;;;;;4.23;2.50;;;;;;;15.36;31.89;95021.63;5074772;28;20433;-82
2022/04/12 12:31:50;;;;;;;4.23;2.60;;;;;;;15.34;31.51;95018.31;5074657;28;20433;-82